createdAt,value
2022-10-05T00:01:41.028Z,8.45
2022-10-05T00:04:12.147Z,8.52
2022-10-05T00:09:20.961Z,8.98
2022-10-05T00:11:48.860Z,7.13
2022-10-05T00:14:18.318Z,8.57
2022-10-05T00:16:46.020Z,10.98
2022-10-05T00:19:19.085Z,8.02
2022-10-05T00:21:46.450Z,5.30
2022-10-05T00:24:15.170Z,11.65
2022-10-05T00:26:42.411Z,8.13
2022-10-05T00:29:16.474Z,7.68
2022-10-05T00:31:43.822Z,7.78
2022-10-05T00:34:11.080Z,7.88
2022-10-05T00:36:39.259Z,6.68
2022-10-05T00:39:06.621Z,6.85
2022-10-05T00:41:54.100Z,10.23
2022-10-05T00:44:40.127Z,6.47
2022-10-05T00:47:16.399Z,7.38
2022-10-05T00:50:06.941Z,6.93
2022-10-05T00:53:06.449Z,3.30
2022-10-05T00:55:45.456Z,6.55
2022-10-05T00:58:12.684Z,10.55
2022-10-05T01:00:46.999Z,9.13
2022-10-05T01:03:20.845Z,6.57
2022-10-05T01:05:48.069Z,5.88
2022-10-05T01:08:34.304Z,10.05
2022-10-05T01:11:30.819Z,4.18
2022-10-05T01:14:00.950Z,7.13
2022-10-05T01:16:36.632Z,6.88
2022-10-05T01:19:09.992Z,6.85
2022-10-05T01:21:50.818Z,7.28
2022-10-05T01:24:47.610Z,8.35
2022-10-05T01:27:37.617Z,11.10
2022-10-05T01:30:16.055Z,9.15
2022-10-05T01:33:15.733Z,6.85
2022-10-05T01:35:42.941Z,5.50
2022-10-05T01:38:13.052Z,7.97
2022-10-05T01:40:47.761Z,5.35
2022-10-05T01:43:21.024Z,6.10
2022-10-05T01:46:07.382Z,9.38
2022-10-05T01:48:37.763Z,6.32
2022-10-05T01:51:05.165Z,6.07
2022-10-05T01:53:44.401Z,7.70
2022-10-05T01:56:25.738Z,6.80
2022-10-05T01:59:16.817Z,7.13
2022-10-05T02:01:49.824Z,6.40
2022-10-05T02:07:24.879Z,7.00
2022-10-05T02:09:59.434Z,5.40
2022-10-05T02:12:30.135Z,6.60
2022-10-05T02:14:59.484Z,6.22
2022-10-05T02:17:29.643Z,7.03
2022-10-05T02:20:00.935Z,8.95
2022-10-05T02:22:39.280Z,8.23
2022-10-05T02:25:09.837Z,5.57
2022-10-05T02:27:45.338Z,6.88
2022-10-05T02:30:16.371Z,5.85
2022-10-05T02:32:50.377Z,7.50
2022-10-05T02:35:18.113Z,8.05
2022-10-05T02:38:01.601Z,8.07
2022-10-05T02:40:34.943Z,9.88
2022-10-05T02:43:02.248Z,5.30
2022-10-05T02:45:41.934Z,8.18
2022-10-05T02:48:18.297Z,8.75
2022-10-05T02:50:59.772Z,5.93
2022-10-05T02:53:50.370Z,4.53
2022-10-05T02:56:37.530Z,12.68
2022-10-05T02:59:23.178Z,5.95
2022-10-05T03:01:52.615Z,7.82
2022-10-05T03:04:19.878Z,12.35
2022-10-05T03:06:52.975Z,9.55
2022-10-05T03:09:21.592Z,7.35
2022-10-05T03:11:51.817Z,9.25
2022-10-05T03:14:32.409Z,6.30
2022-10-05T03:17:19.457Z,8.65
2022-10-05T03:19:46.698Z,10.55
2022-10-05T03:22:16.978Z,10.27
2022-10-05T03:25:02.602Z,7.90
2022-10-05T03:27:53.238Z,10.52
2022-10-05T03:30:26.714Z,9.98
2022-10-05T03:33:02.439Z,9.55
2022-10-05T03:35:36.234Z,7.18
2022-10-05T03:38:13.872Z,12.13
2022-10-05T03:41:01.398Z,8.07
2022-10-05T03:43:40.826Z,8.98
2022-10-05T03:46:14.119Z,9.63
2022-10-05T03:49:04.673Z,7.47
2022-10-05T03:51:43.779Z,6.78
2022-10-05T03:54:16.201Z,13.63
2022-10-05T03:56:50.161Z,10.32
2022-10-05T03:59:19.413Z,8.15
2022-10-05T04:01:50.892Z,6.13
2022-10-05T04:04:41.556Z,8.02
2022-10-05T04:07:29.053Z,11.00
2022-10-05T04:09:56.891Z,8.88
2022-10-05T04:12:31.213Z,12.38
2022-10-05T04:15:01.368Z,7.30
2022-10-05T04:17:33.522Z,12.35
2022-10-05T04:20:06.499Z,9.70
2022-10-05T04:22:40.114Z,8.27
2022-10-05T04:25:14.682Z,9.68
2022-10-05T04:27:48.117Z,7.72
2022-10-05T04:30:15.403Z,10.32
2022-10-05T04:32:43.916Z,9.00
2022-10-05T04:35:17.472Z,7.53
2022-10-05T04:38:00.191Z,7.85
2022-10-05T04:40:39.965Z,12.60
2022-10-05T04:43:16.361Z,8.30
2022-10-05T04:45:43.598Z,10.27
2022-10-05T04:48:17.026Z,13.93
2022-10-05T04:51:03.132Z,9.85
2022-10-05T04:53:34.470Z,10.27
2022-10-05T04:56:04.656Z,12.20
2022-10-05T04:58:42.185Z,12.23
2022-10-05T05:01:12.945Z,14.77
2022-10-05T05:03:59.188Z,11.10
2022-10-05T05:06:35.212Z,12.50
2022-10-05T05:09:14.465Z,16.65
2022-10-05T05:11:44.828Z,22.98
2022-10-05T05:14:20.399Z,16.83
2022-10-05T05:16:53.709Z,13.25
2022-10-05T05:19:35.695Z,20.30
2022-10-05T05:22:15.077Z,19.40
2022-10-05T05:25:05.495Z,26.13
2022-10-05T05:27:47.166Z,27.93
2022-10-05T05:30:17.514Z,22.17
2022-10-05T05:32:55.238Z,32.65
2022-10-05T05:35:37.503Z,25.83
2022-10-05T05:38:23.625Z,24.15
2022-10-05T05:41:03.442Z,28.08
2022-10-05T05:43:43.627Z,25.52
2022-10-05T05:46:17.872Z,23.88
2022-10-05T05:48:46.852Z,27.90
2022-10-05T05:51:24.538Z,24.55
2022-10-05T05:53:54.723Z,22.17
2022-10-05T05:56:26.901Z,20.60
2022-10-05T05:59:00.453Z,25.73
2022-10-05T06:01:33.631Z,25.15
2022-10-05T06:04:10.325Z,22.58
2022-10-05T06:06:43.150Z,23.92
2022-10-05T06:09:29.353Z,31.23
2022-10-05T06:11:59.219Z,29.58
2022-10-05T06:14:33.302Z,25.75
2022-10-05T06:17:20.460Z,28.35
2022-10-05T06:19:48.610Z,24.20
2022-10-05T06:22:28.896Z,25.50
2022-10-05T06:25:15.161Z,23.15
2022-10-05T06:28:01.196Z,25.42
2022-10-05T06:30:46.149Z,21.73
2022-10-05T06:33:42.481Z,30.65
2022-10-05T06:36:09.713Z,30.35
2022-10-05T06:38:55.381Z,28.35
2022-10-05T06:41:37.610Z,30.67
2022-10-05T06:44:04.849Z,23.65
2022-10-05T06:46:37.238Z,30.85
2022-10-05T06:49:16.737Z,26.88
2022-10-05T06:52:04.747Z,27.25
2022-10-05T06:54:31.986Z,29.95
2022-10-05T06:57:08.321Z,29.52
2022-10-05T06:59:44.041Z,24.52
2022-10-05T07:02:34.419Z,25.33
2022-10-05T07:05:16.788Z,27.38
2022-10-05T07:07:44.000Z,26.60
2022-10-05T07:10:40.684Z,29.70
2022-10-05T07:13:15.976Z,26.33
2022-10-05T07:15:52.619Z,30.52
2022-10-05T07:18:55.261Z,25.67
2022-10-05T07:21:41.310Z,25.95
2022-10-05T07:24:11.557Z,27.38
2022-10-05T07:26:52.125Z,33.37
2022-10-05T07:29:24.503Z,24.08
2022-10-05T07:31:54.649Z,30.13
2022-10-05T07:34:21.867Z,32.47
2022-10-05T07:37:31.817Z,29.45
2022-10-05T07:40:11.105Z,27.75
2022-10-05T07:42:52.033Z,30.85
2022-10-05T07:47:56.778Z,31.48
2022-10-05T07:50:30.066Z,28.20
2022-10-05T07:52:59.160Z,28.35
2022-10-05T07:55:27.402Z,24.65
2022-10-05T07:58:13.502Z,26.35
2022-10-05T08:00:43.731Z,22.58
2022-10-05T08:03:14.929Z,31.77
2022-10-05T08:05:43.196Z,20.00
2022-10-05T08:08:26.495Z,26.17
2022-10-05T08:11:12.316Z,26.38
2022-10-05T08:13:59.847Z,28.48
2022-10-05T08:16:28.776Z,26.05
2022-10-05T08:19:15.352Z,26.92
2022-10-05T08:21:45.627Z,28.02
2022-10-05T08:24:30.437Z,27.45
2022-10-05T08:27:05.370Z,23.60
2022-10-05T08:29:35.491Z,25.38
2022-10-05T08:32:04.832Z,28.65
2022-10-05T08:34:32.080Z,25.38
2022-10-05T08:37:02.138Z,25.08
2022-10-05T08:39:35.807Z,23.27
2022-10-05T08:42:12.098Z,25.02
2022-10-05T08:44:39.308Z,23.40
2022-10-05T08:47:13.675Z,21.70
2022-10-05T08:49:59.584Z,19.67
2022-10-05T08:52:29.286Z,21.27
2022-10-05T08:54:59.595Z,26.17
2022-10-05T08:57:42.125Z,25.80
2022-10-05T09:00:12.152Z,24.45
2022-10-05T09:03:01.157Z,26.65
2022-10-05T09:05:37.561Z,25.38
2022-10-05T09:08:23.149Z,25.80
2022-10-05T09:10:50.481Z,24.13
2022-10-05T09:13:36.888Z,24.77
2022-10-05T09:16:10.270Z,26.35
2022-10-05T09:18:49.972Z,17.85
2022-10-05T09:21:37.481Z,24.95
2022-10-05T09:24:07.971Z,23.10
2022-10-05T09:26:35.431Z,20.35
2022-10-05T09:29:25.472Z,20.80
2022-10-05T09:31:58.635Z,21.75
2022-10-05T09:34:49.454Z,20.42
2022-10-05T09:37:26.522Z,21.73
2022-10-05T09:40:12.980Z,22.35
2022-10-05T09:42:40.210Z,17.45
2022-10-05T09:45:21.639Z,24.35
2022-10-05T09:47:52.020Z,22.35
2022-10-05T09:50:38.188Z,28.17
2022-10-05T09:53:11.211Z,16.80
2022-10-05T09:55:39.385Z,22.85
2022-10-05T09:58:20.421Z,21.60
2022-10-05T10:01:03.854Z,19.25
2022-10-05T10:03:39.293Z,24.05
2022-10-05T10:06:15.848Z,22.63
2022-10-05T10:09:03.376Z,24.42
2022-10-05T10:11:51.808Z,25.42
2022-10-05T10:14:39.278Z,24.40
2022-10-05T10:17:13.303Z,17.83
2022-10-05T10:20:02.294Z,22.50
2022-10-05T10:22:50.205Z,22.40
2022-10-05T10:25:35.947Z,22.02
2022-10-05T10:28:03.212Z,19.23
2022-10-05T10:30:49.052Z,18.52
2022-10-05T10:33:24.123Z,22.10
2022-10-05T10:36:09.909Z,18.45
2022-10-05T10:38:42.268Z,24.52
2022-10-05T10:41:15.407Z,19.65
2022-10-05T10:43:58.020Z,18.63
2022-10-05T10:46:34.131Z,21.70
2022-10-05T10:49:19.491Z,15.43
2022-10-05T10:51:49.513Z,22.88
2022-10-05T10:54:25.334Z,18.38
2022-10-05T10:57:03.186Z,20.77
2022-10-05T10:59:45.683Z,18.02
2022-10-05T11:02:27.163Z,16.73
2022-10-05T11:05:09.736Z,18.98
2022-10-05T11:07:37.069Z,18.80
2022-10-05T11:10:15.063Z,21.23
2022-10-05T11:13:01.030Z,18.80
2022-10-05T11:15:43.486Z,13.70
2022-10-05T11:18:20.484Z,16.40
2022-10-05T11:20:50.564Z,15.90
2022-10-05T11:23:17.890Z,19.33
2022-10-05T11:25:54.249Z,15.02
2022-10-05T11:28:24.485Z,16.02
2022-10-05T11:30:54.834Z,20.00
2022-10-05T11:33:34.484Z,23.55
2022-10-05T11:36:14.657Z,18.70
2022-10-05T11:38:57.237Z,18.08
2022-10-05T11:41:43.215Z,14.55
2022-10-05T11:44:19.338Z,20.90
2022-10-05T11:46:52.781Z,20.20
2022-10-05T11:49:20.045Z,13.82
2022-10-05T11:52:13.562Z,15.75
2022-10-05T11:55:09.329Z,13.85
2022-10-05T11:57:37.794Z,21.58
2022-10-05T12:00:19.294Z,16.65
2022-10-05T12:02:58.977Z,15.02
2022-10-05T12:05:32.568Z,17.88
2022-10-05T12:08:21.766Z,17.17
2022-10-05T12:10:59.570Z,11.82
2022-10-05T12:13:45.530Z,14.93
2022-10-05T12:16:25.962Z,16.95
2022-10-05T12:18:56.027Z,16.73
2022-10-05T12:21:46.386Z,20.42
2022-10-05T12:24:32.420Z,13.95
2022-10-05T12:27:02.098Z,13.50
2022-10-05T12:29:41.507Z,14.40
2022-10-05T12:32:21.253Z,16.38
2022-10-05T12:35:07.094Z,17.88
2022-10-05T12:37:53.093Z,14.60
2022-10-05T12:40:38.903Z,17.20
2022-10-05T12:43:27.000Z,15.07
2022-10-05T12:46:06.133Z,14.20
2022-10-05T12:48:45.416Z,14.95
2022-10-05T12:51:31.884Z,17.52
2022-10-05T12:54:19.351Z,15.82
2022-10-05T12:56:52.572Z,20.08
2022-10-05T12:59:41.220Z,18.45
2022-10-05T13:02:09.318Z,20.80
2022-10-05T13:04:43.989Z,17.42
2022-10-05T13:07:29.997Z,17.08
2022-10-05T13:09:59.989Z,24.58
2022-10-05T13:12:49.389Z,18.48
2022-10-05T13:15:39.682Z,17.05
2022-10-05T13:18:10.088Z,15.57
2022-10-05T13:21:07.115Z,22.23
2022-10-05T13:23:37.224Z,14.93
2022-10-05T13:26:25.248Z,19.05
2022-10-05T13:29:03.846Z,22.20
2022-10-05T13:31:39.239Z,19.00
2022-10-05T13:34:18.861Z,19.42
2022-10-05T13:37:01.227Z,17.20
2022-10-05T13:39:37.639Z,18.00
2022-10-05T13:42:13.740Z,14.75
2022-10-05T13:44:50.498Z,18.40
2022-10-05T13:47:22.779Z,20.33
2022-10-05T13:49:56.219Z,16.92
2022-10-05T13:52:23.428Z,21.02
2022-10-05T13:54:53.712Z,22.80
2022-10-05T13:57:21.299Z,17.27
2022-10-05T13:59:53.547Z,17.65
2022-10-05T14:02:28.008Z,20.58
2022-10-05T14:05:02.949Z,19.15
2022-10-05T14:07:35.039Z,20.10
2022-10-05T14:10:04.599Z,15.68
2022-10-05T14:12:38.193Z,18.52
2022-10-05T14:15:19.770Z,23.70
2022-10-05T14:17:47.182Z,17.27
2022-10-05T14:20:18.444Z,23.17
2022-10-05T14:25:18.112Z,20.08
2022-10-05T14:28:24.210Z,18.65
2022-10-05T14:31:18.145Z,13.98
2022-10-05T14:33:45.723Z,15.40
2022-10-05T14:36:21.263Z,17.33
2022-10-05T14:38:58.071Z,23.00
2022-10-05T14:41:27.519Z,19.08
2022-10-05T14:43:57.694Z,21.73
2022-10-05T14:46:29.100Z,18.17
2022-10-05T14:49:15.915Z,20.63
2022-10-05T14:51:43.414Z,22.10
2022-10-05T14:54:25.282Z,21.92
2022-10-05T14:57:02.544Z,21.85
2022-10-05T14:59:40.262Z,19.55
2022-10-05T15:02:26.896Z,15.77
2022-10-05T15:04:54.151Z,23.85
2022-10-05T15:07:23.760Z,16.17
2022-10-05T15:09:56.993Z,18.45
2022-10-05T15:12:30.169Z,21.67
2022-10-05T15:15:02.403Z,16.02
2022-10-05T15:17:40.227Z,17.33
2022-10-05T15:20:17.289Z,17.70
2022-10-05T15:23:05.021Z,20.23
2022-10-05T15:25:47.961Z,17.30
2022-10-05T15:28:18.006Z,16.85
2022-10-05T15:30:52.778Z,23.23
2022-10-05T15:33:24.817Z,22.25
2022-10-05T15:36:00.721Z,19.80
2022-10-05T15:38:50.047Z,17.77
2022-10-05T15:41:24.306Z,21.75
2022-10-05T15:43:55.192Z,15.32
2022-10-05T15:46:34.370Z,19.17
2022-10-05T15:49:40.247Z,17.85
2022-10-05T15:52:25.913Z,17.73
2022-10-05T15:55:01.058Z,14.57
2022-10-05T15:57:31.251Z,21.42
2022-10-05T16:00:10.899Z,18.98
2022-10-05T16:02:38.265Z,20.20
2022-10-05T16:05:44.292Z,20.17
2022-10-05T16:08:50.292Z,20.70
2022-10-05T16:11:36.902Z,16.77
2022-10-05T16:14:13.148Z,16.92
2022-10-05T16:16:45.861Z,24.73
2022-10-05T16:19:21.957Z,20.00
2022-10-05T16:22:04.631Z,16.58
2022-10-05T16:24:38.080Z,19.05
2022-10-05T16:27:10.519Z,20.83
2022-10-05T16:29:47.686Z,17.55
2022-10-05T16:32:17.504Z,21.05
2022-10-05T16:34:51.093Z,16.92
2022-10-05T16:37:24.823Z,18.83
2022-10-05T16:39:54.791Z,19.13
2022-10-05T16:42:41.474Z,16.30
2022-10-05T16:45:20.605Z,19.88
2022-10-05T16:47:53.549Z,15.75
2022-10-05T16:50:56.149Z,20.58
2022-10-05T16:53:29.664Z,18.38
2022-10-05T16:56:01.900Z,17.50
2022-10-05T16:58:38.290Z,21.95
2022-10-05T17:01:05.570Z,14.82
2022-10-05T17:03:41.889Z,19.63
2022-10-05T17:06:21.533Z,21.00
2022-10-05T17:08:54.930Z,15.75
2022-10-05T17:11:36.655Z,15.82
2022-10-05T17:14:11.359Z,21.92
2022-10-05T17:16:57.689Z,17.75
2022-10-05T17:19:27.967Z,15.70
2022-10-05T17:22:00.673Z,19.00
2022-10-05T17:24:28.073Z,21.30
2022-10-05T17:27:15.991Z,28.23
2022-10-05T17:29:43.231Z,23.35
2022-10-05T17:32:12.147Z,24.33
2022-10-05T17:34:40.647Z,19.10
2022-10-05T17:37:18.400Z,17.10
2022-10-05T17:39:47.579Z,21.35
2022-10-05T17:42:26.820Z,22.70
2022-10-05T17:45:02.649Z,21.05
2022-10-05T17:47:48.412Z,18.58
2022-10-05T17:50:41.882Z,23.08
2022-10-05T17:53:41.131Z,24.67
2022-10-05T17:56:08.890Z,18.95
2022-10-05T17:58:36.127Z,25.02
2022-10-05T18:01:04.342Z,20.88
2022-10-05T18:03:51.505Z,21.08
2022-10-05T18:06:37.770Z,26.50
2022-10-05T18:09:17.481Z,20.23
2022-10-05T18:11:49.396Z,21.70
2022-10-05T18:14:19.525Z,21.48
2022-10-05T18:17:03.519Z,19.05
2022-10-05T18:19:32.504Z,20.30
2022-10-05T18:22:01.450Z,21.35
2022-10-05T18:24:34.385Z,20.15
2022-10-05T18:27:24.726Z,20.77
2022-10-05T18:30:02.824Z,21.85
2022-10-05T18:32:36.160Z,19.05
2022-10-05T18:35:11.422Z,20.00
2022-10-05T18:37:38.676Z,24.92
2022-10-05T18:40:21.412Z,20.42
2022-10-05T18:42:51.865Z,30.45
2022-10-05T18:45:32.014Z,22.23
2022-10-05T18:47:59.225Z,28.27
2022-10-05T18:50:47.652Z,27.10
2022-10-05T18:53:47.399Z,24.10
2022-10-05T18:56:23.541Z,19.83
2022-10-05T18:58:54.596Z,25.08
2022-10-05T19:01:36.691Z,23.45
2022-10-05T19:04:19.317Z,27.85
2022-10-05T19:06:52.906Z,23.88
2022-10-05T19:09:26.338Z,26.60
2022-10-05T19:11:56.631Z,23.23
2022-10-05T19:14:37.387Z,24.90
2022-10-05T19:17:04.598Z,25.08
2022-10-05T19:19:35.061Z,25.52
2022-10-05T19:22:02.291Z,25.38
2022-10-05T19:24:37.870Z,26.50
2022-10-05T19:27:08.032Z,23.50
2022-10-05T19:29:43.665Z,29.48
2022-10-05T19:32:17.528Z,23.58
2022-10-05T19:34:48.810Z,25.55
2022-10-05T19:37:22.077Z,24.13
2022-10-05T19:39:53.649Z,23.70
2022-10-05T19:42:20.860Z,26.08
2022-10-05T19:44:48.215Z,26.25
2022-10-05T19:47:36.381Z,22.63
2022-10-05T19:50:24.578Z,25.25
2022-10-05T19:52:52.754Z,23.23
2022-10-05T19:55:24.235Z,28.08
2022-10-05T19:57:56.227Z,26.52
2022-10-05T20:00:27.648Z,27.42
2022-10-05T20:03:13.511Z,26.70
2022-10-05T20:05:40.849Z,24.33
2022-10-05T20:08:09.278Z,26.45
2022-10-05T20:10:36.603Z,26.65
2022-10-05T20:13:05.273Z,29.17
2022-10-05T20:15:52.898Z,23.27
2022-10-05T20:18:55.438Z,32.78
2022-10-05T20:21:39.019Z,34.17
2022-10-05T20:24:06.975Z,27.33
2022-10-05T20:26:59.582Z,22.85
2022-10-05T20:29:26.936Z,31.50
2022-10-05T20:31:54.248Z,27.73
2022-10-05T20:34:24.854Z,35.88
2022-10-05T20:36:52.674Z,26.85
2022-10-05T20:39:21.393Z,28.35
2022-10-05T20:41:49.042Z,29.52
2022-10-05T20:44:16.315Z,26.63
2022-10-05T20:46:43.684Z,27.63
2022-10-05T20:49:11.145Z,25.10
2022-10-05T20:51:42.473Z,25.45
2022-10-05T20:54:09.723Z,23.85
2022-10-05T20:56:36.991Z,24.30
2022-10-05T20:59:04.313Z,21.73
2022-10-05T21:01:31.967Z,23.50
2022-10-05T21:03:59.447Z,22.88
2022-10-05T21:06:29.584Z,23.77
2022-10-05T21:08:56.888Z,24.25
2022-10-05T21:11:24.190Z,24.65
2022-10-05T21:13:53.923Z,24.67
2022-10-05T21:16:21.531Z,18.92
2022-10-05T21:18:49.483Z,21.13
2022-10-05T21:21:17.430Z,21.90
2022-10-05T21:23:45.541Z,21.27
2022-10-05T21:26:13.445Z,21.42
2022-10-05T21:28:41.301Z,19.13
2022-10-05T21:31:09.269Z,19.23
2022-10-05T21:33:36.899Z,21.63
2022-10-05T21:36:04.485Z,18.42
2022-10-05T21:38:31.790Z,20.08
2022-10-05T21:40:59.196Z,18.73
2022-10-05T21:43:26.841Z,21.63
2022-10-05T21:45:55.350Z,19.45
2022-10-05T21:48:23.092Z,17.83
2022-10-05T21:50:50.328Z,18.20
2022-10-05T21:53:19.022Z,18.63
2022-10-05T21:55:48.495Z,19.58
2022-10-05T21:58:16.496Z,19.38
2022-10-05T22:00:43.775Z,23.70
2022-10-05T22:03:11.161Z,19.60
2022-10-05T22:05:38.688Z,16.10
2022-10-05T22:08:06.111Z,18.13
2022-10-05T22:10:33.804Z,21.73
2022-10-05T22:13:04.864Z,21.00
2022-10-05T22:15:32.327Z,17.13
2022-10-05T22:18:02.952Z,17.70
2022-10-05T22:20:32.038Z,15.73
2022-10-05T22:22:59.364Z,15.88
2022-10-05T22:25:26.786Z,14.50
2022-10-05T22:27:54.177Z,14.82
2022-10-05T22:30:21.663Z,18.50
2022-10-05T22:32:51.164Z,18.65
2022-10-05T22:35:18.434Z,18.48
2022-10-05T22:37:45.970Z,14.15
2022-10-05T22:40:13.272Z,13.98
2022-10-05T22:42:40.683Z,16.65
2022-10-05T22:45:08.512Z,17.55
2022-10-05T22:47:35.963Z,15.82
2022-10-05T22:50:05.728Z,15.82
2022-10-05T22:52:32.989Z,13.30
2022-10-05T22:55:00.336Z,15.48
2022-10-05T22:57:27.572Z,16.73
2022-10-05T22:59:54.794Z,17.75
2022-10-05T23:02:22.084Z,20.63
2022-10-05T23:04:49.365Z,19.80
2022-10-05T23:07:16.585Z,16.02
2022-10-05T23:09:43.846Z,19.15
2022-10-05T23:12:11.748Z,17.63
2022-10-05T23:14:39.014Z,19.08
2022-10-05T23:17:07.949Z,18.05
2022-10-05T23:19:35.188Z,16.60
2022-10-05T23:22:03.100Z,21.10
2022-10-05T23:24:30.355Z,15.50
2022-10-05T23:26:57.671Z,19.05
2022-10-05T23:29:24.914Z,16.50
2022-10-05T23:31:52.175Z,19.35
2022-10-05T23:34:19.495Z,16.67
2022-10-05T23:36:46.725Z,20.40
2022-10-05T23:39:14.253Z,17.98
2022-10-05T23:41:43.968Z,19.40
2022-10-05T23:44:11.642Z,16.35
2022-10-05T23:46:38.923Z,19.83
2022-10-05T23:49:06.246Z,20.63
2022-10-05T23:51:33.570Z,20.33
2022-10-05T23:54:00.908Z,22.50
2022-10-05T23:56:28.137Z,17.95
2022-10-05T23:58:55.352Z,16.20
